Time;durP1;ratioP1;P1;durP2;ratioP2;P2;SDS_P1;SDS_P2;PMS_P1;PMS_P2;Temp;Humidity;BMP_temperature;BMP_pressure;BME280_temperature;BME280_humidity;BME280_pressure;Samples;Min_cycle;Max_cycle;Signal;HPM_P1;HPM_P2
2021/12/18 00:00:52;;;;;;;145.07;23.48;;;2.90;99.90;;;;;;5005646;28;20026;-65
2021/12/18 00:03:17;;;;;;;98.50;20.77;;;2.90;99.90;;;;;;5005674;28;20042;-65
2021/12/18 00:05:44;;;;;;;186.40;24.77;;;2.90;99.90;;;;;;5009873;28;20024;-65
2021/12/18 00:08:10;;;;;;;107.85;21.45;;;2.90;99.90;;;;;;5009224;28;20521;-65
2021/12/18 00:10:36;;;;;;;180.63;26.45;;;2.90;99.90;;;;;;5009668;28;20548;-65
2021/12/18 00:13:02;;;;;;;116.35;22.08;;;2.90;99.90;;;;;;5010528;28;20023;-65
2021/12/18 00:15:29;;;;;;;103.30;22.40;;;2.90;99.90;;;;;;5006839;28;20511;-65
2021/12/18 00:17:55;;;;;;;116.25;22.90;;;2.90;99.90;;;;;;5010255;28;20470;-65
2021/12/18 00:20:23;;;;;;;179.50;25.27;;;2.90;99.90;;;;;;5007542;28;20049;-65
2021/12/18 00:22:49;;;;;;;97.05;20.08;;;2.90;99.90;;;;;;5006472;28;20497;-64
2021/12/18 00:25:15;;;;;;;128.40;23.58;;;3.00;99.90;;;;;;5009384;28;20057;-65
2021/12/18 00:27:40;;;;;;;106.18;21.10;;;3.00;99.90;;;;;;5007192;28;20070;-65
2021/12/18 00:30:09;;;;;;;98.15;20.60;;;3.00;99.90;;;;;;5007656;28;20030;-65
2021/12/18 00:32:34;;;;;;;112.82;22.23;;;3.00;99.90;;;;;;5008260;28;20030;-65
2021/12/18 00:35:00;;;;;;;100.15;22.08;;;3.00;99.90;;;;;;5026221;28;20089;-64
2021/12/18 00:37:26;;;;;;;93.38;21.70;;;2.90;99.90;;;;;;5005967;28;20104;-65
2021/12/18 00:40:05;;;;;;;93.80;22.20;;;2.90;99.90;;;;;;5007798;28;20524;-65
2021/12/18 00:45:31;;;;;;;85.85;22.02;;;2.90;99.90;;;;;;4975166;28;20482;-65
2021/12/18 00:47:57;;;;;;;83.68;19.77;;;2.90;99.90;;;;;;4997637;28;20041;-65
2021/12/18 00:50:30;;;;;;;100.13;20.58;;;2.90;99.90;;;;;;5010210;28;20037;-64
2021/12/18 00:52:57;;;;;;;90.70;21.25;;;3.00;99.90;;;;;;5019455;28;20088;-65
2021/12/18 00:55:23;;;;;;;62.65;18.13;;;3.00;99.90;;;;;;5002384;28;20041;-65
2021/12/18 00:57:50;;;;;;;71.60;19.20;;;3.00;99.90;;;;;;5009049;28;20029;-65
2021/12/18 01:00:23;;;;;;;83.93;18.50;;;3.00;99.90;;;;;;5005223;28;20135;-65
2021/12/18 01:02:56;;;;;;;67.80;20.88;;;3.00;99.90;;;;;;5006517;28;20088;-65
2021/12/18 01:05:22;;;;;;;67.50;20.20;;;3.00;99.90;;;;;;5009450;28;20597;-65
2021/12/18 01:07:47;;;;;;;57.10;18.48;;;2.90;99.90;;;;;;5008311;28;20030;-65
2021/12/18 01:12:53;;;;;;;71.43;20.55;;;2.90;99.90;;;;;;5007623;28;20066;-65
2021/12/18 01:15:24;;;;;;;74.25;18.45;;;2.90;99.90;;;;;;5006816;28;20030;-65
2021/12/18 01:23:21;;;;;;;70.70;18.73;;;2.90;99.90;;;;;;5009297;28;20037;-65
2021/12/18 01:25:51;;;;;;;71.78;19.23;;;3.00;99.90;;;;;;5006038;28;20065;-65
2021/12/18 01:28:16;;;;;;;66.00;20.33;;;3.00;99.90;;;;;;5007378;28;20075;-65
2021/12/18 01:30:42;;;;;;;90.93;20.35;;;3.00;99.90;;;;;;5006717;28;20784;-65
2021/12/18 01:33:08;;;;;;;79.15;19.00;;;2.90;99.90;;;;;;5007013;28;20033;-65
2021/12/18 01:35:34;;;;;;;88.68;18.83;;;2.90;99.90;;;;;;5007918;28;20030;-65
2021/12/18 01:38:00;;;;;;;97.70;20.85;;;3.00;99.90;;;;;;5007486;28;20041;-65
2021/12/18 01:40:26;;;;;;;76.72;20.15;;;3.00;99.90;;;;;;5008343;28;20029;-65
2021/12/18 01:53:20;;;;;;;85.40;18.98;;;3.00;99.90;;;;;;5005150;28;20037;-65
2021/12/18 01:55:49;;;;;;;129.15;22.50;;;3.00;99.90;;;;;;5006869;28;20139;-65
2021/12/18 01:58:20;;;;;;;82.38;21.08;;;3.00;99.90;;;;;;5011225;28;20022;-65
2021/12/18 02:00:46;;;;;;;108.50;21.33;;;3.00;99.90;;;;;;5006074;28;20537;-65
2021/12/18 02:03:12;;;;;;;93.03;22.10;;;3.00;99.90;;;;;;5008463;28;20030;-65
2021/12/18 02:05:38;;;;;;;73.22;19.52;;;3.00;99.90;;;;;;5007394;28;20050;-65
2021/12/18 02:08:04;;;;;;;82.35;23.52;;;3.00;99.90;;;;;;5004642;28;20033;-65
2021/12/18 02:10:41;;;;;;;75.65;20.13;;;3.00;99.90;;;;;;5006931;28;20036;-65
2021/12/18 02:13:24;;;;;;;77.60;19.38;;;2.90;99.90;;;;;;5011634;28;20030;-65
2021/12/18 02:21:23;;;;;;;80.40;19.45;;;2.90;99.90;;;;;;5003447;28;20563;-65
2021/12/18 02:23:49;;;;;;;78.60;21.02;;;2.90;99.90;;;;;;5008363;28;20018;-65
2021/12/18 02:26:16;;;;;;;67.85;20.90;;;2.90;99.90;;;;;;5008192;28;20025;-65
2021/12/18 02:28:45;;;;;;;75.05;21.83;;;2.90;99.90;;;;;;5006788;28;20034;-65
2021/12/18 02:31:11;;;;;;;60.65;18.25;;;2.90;99.90;;;;;;5010160;28;20044;-65
2021/12/18 02:33:37;;;;;;;63.67;20.33;;;2.90;99.90;;;;;;5004202;28;20404;-64
2021/12/18 02:36:06;;;;;;;63.80;19.17;;;2.90;99.90;;;;;;5008621;28;20600;-65
2021/12/18 02:38:58;;;;;;;72.97;20.90;;;2.90;99.90;;;;;;5004186;28;20029;-65
2021/12/18 02:41:40;;;;;;;;;;;2.90;99.90;;;;;;5006177;28;20464;-65
2021/12/18 02:44:11;;;;;;;69.75;21.65;;;2.90;99.90;;;;;;5006091;28;19952;-65
2021/12/18 02:46:39;;;;;;;71.55;20.02;;;2.90;99.90;;;;;;5003892;28;20030;-65
2021/12/18 02:49:10;;;;;;;70.30;19.40;;;3.00;99.90;;;;;;5006292;28;20068;-65
2021/12/18 02:51:36;;;;;;;74.80;20.98;;;3.00;99.90;;;;;;5005972;28;20113;-65
2021/12/18 02:54:02;;;;;;;84.88;20.02;;;3.00;99.90;;;;;;5002782;28;20121;-65
2021/12/18 02:56:28;;;;;;;113.97;21.17;;;3.00;99.90;;;;;;5007199;28;20413;-64
2021/12/18 02:58:59;;;;;;;145.75;21.48;;;3.00;99.90;;;;;;5005822;28;20348;-65
2021/12/18 03:01:27;;;;;;;105.82;21.35;;;3.00;99.90;;;;;;5006590;28;21090;-65
2021/12/18 03:03:55;;;;;;;131.23;23.38;;;3.00;99.90;;;;;;5004852;28;20045;-65
2021/12/18 03:06:31;;;;;;;102.35;21.30;;;3.00;99.90;;;;;;5019281;28;20072;-65
2021/12/18 03:25:31;;;;;;;115.32;23.85;;;3.00;99.90;;;;;;5007654;28;20029;-65
2021/12/18 03:28:00;;;;;;;90.85;22.23;;;3.00;99.90;;;;;;5005616;28;20026;-65
2021/12/18 03:30:26;;;;;;;128.68;24.88;;;3.00;99.90;;;;;;5007290;28;20022;-65
2021/12/18 03:32:52;;;;;;;131.57;25.38;;;3.00;99.90;;;;;;5003859;28;20029;-65
2021/12/18 03:35:18;;;;;;;78.75;21.10;;;3.00;99.90;;;;;;5005610;28;20022;-65
2021/12/18 03:37:45;;;;;;;76.95;22.35;;;3.00;99.90;;;;;;5004650;28;20026;-65
2021/12/18 03:40:14;;;;;;;91.72;21.33;;;3.00;99.90;;;;;;5004120;28;20039;-65
2021/12/18 03:42:40;;;;;;;80.15;21.20;;;3.00;99.90;;;;;;5006044;28;20112;-65
2021/12/18 03:45:08;;;;;;;71.30;19.00;;;3.00;99.90;;;;;;5004811;28;20088;-65
2021/12/18 03:47:34;;;;;;;72.65;20.17;;;3.00;99.90;;;;;;5006109;28;20021;-65
2021/12/18 03:50:00;;;;;;;72.30;22.48;;;3.00;99.90;;;;;;5006517;28;20393;-65
2021/12/18 03:52:26;;;;;;;64.90;19.90;;;3.00;99.90;;;;;;5004327;28;20037;-65
2021/12/18 03:54:51;;;;;;;53.58;17.38;;;3.00;99.90;;;;;;5004663;28;20556;-65
2021/12/18 03:57:17;;;;;;;50.35;17.17;;;3.10;99.90;;;;;;5008557;28;20030;-65
2021/12/18 03:59:44;;;;;;;41.25;16.70;;;3.10;99.90;;;;;;5004946;28;20029;-65
2021/12/18 04:02:09;;;;;;;47.00;16.42;;;3.00;99.90;;;;;;5003952;28;20116;-65
2021/12/18 04:04:35;;;;;;;39.67;16.13;;;3.10;99.90;;;;;;5004549;28;20748;-65
2021/12/18 04:07:01;;;;;;;41.13;15.30;;;3.10;99.90;;;;;;5001688;28;20100;-65
2021/12/18 04:09:31;;;;;;;42.17;16.58;;;3.10;99.90;;;;;;5005862;28;20093;-65
2021/12/18 04:11:57;;;;;;;35.40;15.65;;;3.10;99.90;;;;;;5009068;28;20481;-68
2021/12/18 04:14:23;;;;;;;39.67;15.60;;;3.10;99.90;;;;;;5002999;28;20501;-65
2021/12/18 04:16:49;;;;;;;36.63;16.42;;;3.10;99.90;;;;;;5004519;28;20022;-64
2021/12/18 04:19:14;;;;;;;34.47;16.23;;;3.10;99.90;;;;;;5005435;28;20030;-65
2021/12/18 04:21:40;;;;;;;37.55;16.38;;;3.10;99.90;;;;;;5004245;28;20792;-65
2021/12/18 04:24:06;;;;;;;42.97;17.17;;;3.10;99.90;;;;;;5004896;28;20030;-65
2021/12/18 04:26:34;;;;;;;38.55;16.77;;;3.10;99.90;;;;;;5016160;28;20044;-65
2021/12/18 04:29:01;;;;;;;33.70;14.27;;;3.20;99.90;;;;;;5004663;28;20037;-65
2021/12/18 04:31:28;;;;;;;34.53;14.77;;;3.20;99.90;;;;;;5006062;28;20495;-65
2021/12/18 04:33:53;;;;;;;33.42;15.40;;;3.20;99.90;;;;;;5006231;28;20030;-65
2021/12/18 04:36:21;;;;;;;29.33;14.93;;;3.30;99.90;;;;;;5005365;28;20041;-65
2021/12/18 04:38:47;;;;;;;33.28;14.20;;;3.30;99.90;;;;;;5001886;28;20077;-65
2021/12/18 04:41:20;;;;;;;31.75;14.32;;;3.30;99.90;;;;;;5005497;28;20033;-64
2021/12/18 04:43:46;;;;;;;28.73;13.75;;;3.30;99.90;;;;;;5006583;28;20034;-65
2021/12/18 04:46:12;;;;;;;30.38;15.25;;;3.30;99.90;;;;;;5019859;28;20037;-65
2021/12/18 04:48:38;;;;;;;25.60;13.52;;;3.30;99.90;;;;;;5002925;28;20100;-65
2021/12/18 04:51:04;;;;;;;31.80;14.73;;;3.30;99.90;;;;;;5009556;28;20080;-65
2021/12/18 04:53:29;;;;;;;28.58;14.18;;;3.30;99.90;;;;;;5009659;28;20026;-65
2021/12/18 04:55:55;;;;;;;28.13;14.15;;;3.30;99.90;;;;;;5009308;28;20026;-65
2021/12/18 04:58:21;;;;;;;31.52;14.55;;;3.30;99.90;;;;;;5005320;28;20164;-65
2021/12/18 05:00:47;;;;;;;29.73;15.23;;;3.30;99.90;;;;;;5005830;28;20486;-65
2021/12/18 05:03:15;;;;;;;31.45;14.50;;;3.30;99.90;;;;;;5006110;28;20024;-65
2021/12/18 05:05:41;;;;;;;36.45;15.30;;;3.30;99.90;;;;;;5010559;28;20022;-65
2021/12/18 05:08:07;;;;;;;33.83;15.52;;;3.30;99.90;;;;;;5007388;28;20041;-65
2021/12/18 05:10:33;;;;;;;34.75;14.82;;;3.20;99.90;;;;;;5005107;28;20031;-65
2021/12/18 05:12:59;;;;;;;36.90;15.60;;;3.20;99.90;;;;;;5000588;28;20142;-65
2021/12/18 05:15:25;;;;;;;33.45;14.50;;;3.20;99.90;;;;;;5011026;28;20105;-64
2021/12/18 05:17:51;;;;;;;37.63;16.20;;;3.20;99.90;;;;;;5007451;28;20097;-64
2021/12/18 05:20:17;;;;;;;28.38;14.07;;;3.30;99.90;;;;;;5006063;28;20046;-64
2021/12/18 05:22:43;;;;;;;32.50;13.65;;;3.30;99.90;;;;;;5022157;28;20026;-64
2021/12/18 05:25:09;;;;;;;36.60;14.98;;;3.30;99.90;;;;;;5008079;28;20029;-64
2021/12/18 05:27:36;;;;;;;32.78;15.40;;;3.30;99.90;;;;;;5007398;28;20149;-65
2021/12/18 05:30:03;;;;;;;38.35;13.65;;;3.30;99.90;;;;;;5008058;28;20025;-66
2021/12/18 05:32:29;;;;;;;31.23;14.15;;;3.30;99.90;;;;;;5012200;28;20064;-65
2021/12/18 05:34:55;;;;;;;31.13;13.93;;;3.30;99.90;;;;;;5005774;28;20053;-65
2021/12/18 05:37:32;;;;;;;30.50;14.27;;;3.40;99.90;;;;;;5009272;28;20473;-65
2021/12/18 05:39:59;;;;;;;28.80;14.15;;;3.40;99.90;;;;;;5006849;28;20038;-65
2021/12/18 05:42:25;;;;;;;33.17;14.50;;;3.40;99.90;;;;;;5006413;28;20081;-65
2021/12/18 05:44:50;;;;;;;31.33;14.23;;;3.40;99.90;;;;;;5011166;28;20090;-65
2021/12/18 05:47:16;;;;;;;38.95;15.10;;;3.40;99.90;;;;;;5007706;28;20370;-65
2021/12/18 05:49:42;;;;;;;37.38;15.70;;;3.40;99.90;;;;;;5005621;28;20038;-65
2021/12/18 05:52:08;;;;;;;27.95;13.68;;;3.40;99.90;;;;;;5005106;28;20077;-65
2021/12/18 05:54:35;;;;;;;44.35;16.65;;;3.40;99.90;;;;;;5015280;28;20577;-65
2021/12/18 05:57:06;;;;;;;36.65;15.07;;;3.40;99.90;;;;;;5005519;28;20022;-65
2021/12/18 05:59:32;;;;;;;35.35;15.43;;;3.40;99.90;;;;;;5007761;28;20030;-65
2021/12/18 06:01:57;;;;;;;33.95;13.80;;;3.30;99.90;;;;;;5007133;28;20041;-65
2021/12/18 06:04:23;;;;;;;39.58;15.98;;;3.30;99.90;;;;;;5006508;28;20096;-65
2021/12/18 06:06:49;;;;;;;33.90;15.52;;;3.20;99.90;;;;;;5007113;28;20026;-65
2021/12/18 06:09:15;;;;;;;35.80;15.55;;;3.20;99.90;;;;;;5010401;28;20034;-65
2021/12/18 06:11:41;;;;;;;42.17;14.20;;;3.20;99.90;;;;;;5006829;28;20036;-65
2021/12/18 06:14:07;;;;;;;40.63;15.55;;;3.20;99.90;;;;;;5005819;28;20409;-65
2021/12/18 06:16:33;;;;;;;32.80;14.75;;;3.20;99.90;;;;;;5008292;28;20026;-65
2021/12/18 06:18:58;;;;;;;33.78;13.98;;;3.10;99.90;;;;;;5003434;28;20041;-64
2021/12/18 06:21:24;;;;;;;32.80;14.05;;;3.10;99.90;;;;;;5007117;28;20026;-65
2021/12/18 06:23:53;;;;;;;41.65;14.55;;;3.10;99.90;;;;;;5008546;28;20587;-65
2021/12/18 06:26:20;;;;;;;35.58;14.18;;;3.10;99.90;;;;;;5004465;28;20038;-65
2021/12/18 06:28:46;;;;;;;36.33;14.90;;;3.10;99.90;;;;;;5004870;28;20033;-65
2021/12/18 06:31:12;;;;;;;31.80;15.50;;;3.10;99.90;;;;;;5006063;28;20092;-65
2021/12/18 06:33:37;;;;;;;28.95;13.90;;;3.10;99.90;;;;;;5003299;28;20085;-65
2021/12/18 06:36:04;;;;;;;38.30;15.18;;;3.20;99.90;;;;;;5006435;28;20030;-65
2021/12/18 06:38:29;;;;;;;36.38;15.57;;;3.20;99.90;;;;;;5002154;28;20033;-65
2021/12/18 06:40:55;;;;;;;45.85;15.10;;;3.20;99.90;;;;;;5001136;28;20034;-65
2021/12/18 06:43:21;;;;;;;34.55;14.18;;;3.20;99.90;;;;;;5006450;28;20038;-65
2021/12/18 06:45:46;;;;;;;39.95;14.77;;;3.20;99.90;;;;;;5005694;28;20124;-65
2021/12/18 06:48:12;;;;;;;46.13;15.38;;;3.20;99.90;;;;;;5010756;28;20124;-65
2021/12/18 06:50:38;;;;;;;44.83;16.75;;;3.20;99.90;;;;;;5008308;28;20554;-65
2021/12/18 06:53:05;;;;;;;53.28;18.00;;;3.10;99.90;;;;;;5006575;28;20437;-65
2021/12/18 06:55:32;;;;;;;44.78;17.45;;;3.10;99.90;;;;;;5004268;28;20030;-65
2021/12/18 06:57:58;;;;;;;44.17;16.38;;;3.10;99.90;;;;;;5006537;28;20493;-65
2021/12/18 07:00:25;;;;;;;49.15;16.23;;;3.10;99.90;;;;;;5004644;28;20125;-65
2021/12/18 07:02:50;;;;;;;41.38;17.30;;;3.20;99.90;;;;;;5006396;28;20521;-65
2021/12/18 07:05:16;;;;;;;54.63;17.23;;;3.20;99.90;;;;;;5003041;28;20039;-64
2021/12/18 07:07:42;;;;;;;47.83;15.70;;;3.20;99.90;;;;;;5005939;28;20034;-65
2021/12/18 07:10:10;;;;;;;46.65;15.43;;;3.20;99.90;;;;;;5006404;28;20033;-65
2021/12/18 07:12:36;;;;;;;46.13;18.20;;;3.20;99.90;;;;;;5018594;28;20081;-65
2021/12/18 07:15:04;;;;;;;58.17;16.40;;;3.20;99.90;;;;;;5007033;28;20421;-65
2021/12/18 07:17:30;;;;;;;48.78;15.73;;;3.20;99.90;;;;;;5005054;28;20045;-65
2021/12/18 07:19:56;;;;;;;54.33;18.67;;;3.20;99.90;;;;;;5002480;28;20049;-65
2021/12/18 07:22:21;;;;;;;43.00;15.70;;;3.20;99.90;;;;;;5009497;28;20030;-65
2021/12/18 07:24:47;;;;;;;42.65;16.67;;;3.20;99.90;;;;;;5008036;28;20030;-65
2021/12/18 07:27:13;;;;;;;35.58;14.20;;;3.20;99.90;;;;;;5005534;28;20397;-66
2021/12/18 07:29:38;;;;;;;38.45;14.43;;;3.20;99.90;;;;;;5006253;28;20432;-65
2021/12/18 07:32:04;;;;;;;33.22;14.35;;;3.20;99.90;;;;;;5004653;28;20042;-65
2021/12/18 07:34:30;;;;;;;47.67;16.25;;;3.20;99.90;;;;;;5006609;28;20034;-65
2021/12/18 07:36:56;;;;;;;39.75;16.20;;;3.20;99.90;;;;;;5007599;28;20035;-65
2021/12/18 07:39:21;;;;;;;42.13;15.73;;;3.20;99.90;;;;;;5005764;28;20033;-65
2021/12/18 07:41:47;;;;;;;41.80;18.65;;;3.30;99.90;;;;;;5005054;28;20021;-65
2021/12/18 07:44:13;;;;;;;53.00;20.08;;;3.30;99.90;;;;;;4997426;28;20041;-65
2021/12/18 07:46:39;;;;;;;47.50;16.30;;;3.20;99.90;;;;;;5004476;28;20121;-65
2021/12/18 07:49:08;;;;;;;48.92;18.27;;;3.30;99.90;;;;;;5005956;28;20382;-65
2021/12/18 07:51:34;;;;;;;47.83;19.30;;;3.30;99.90;;;;;;5003454;28;20054;-65
2021/12/18 07:54:01;;;;;;;38.97;15.32;;;3.20;99.90;;;;;;5000948;28;20061;-65
2021/12/18 07:56:27;;;;;;;44.97;18.80;;;3.20;99.90;;;;;;5003972;28;20045;-65
2021/12/18 07:58:53;;;;;;;40.63;15.50;;;3.30;99.90;;;;;;5007463;28;20030;-65
2021/12/18 08:01:19;;;;;;;42.60;17.23;;;3.30;99.90;;;;;;5006244;28;20150;-65
2021/12/18 08:03:44;;;;;;;48.80;20.33;;;3.30;99.90;;;;;;5004859;28;20117;-67
2021/12/18 08:06:10;;;;;;;38.35;16.77;;;3.30;99.90;;;;;;5016977;28;20026;-66
2021/12/18 08:08:36;;;;;;;44.72;16.92;;;3.30;99.90;;;;;;5005965;28;20042;-66
2021/12/18 08:11:03;;;;;;;43.00;16.33;;;3.30;99.90;;;;;;5005337;28;20397;-66
2021/12/18 08:13:28;;;;;;;41.65;15.95;;;3.30;99.90;;;;;;5004395;28;20038;-66
2021/12/18 08:15:54;;;;;;;42.17;15.98;;;3.40;99.90;;;;;;5003087;28;20056;-67
2021/12/18 08:18:20;;;;;;;35.85;15.52;;;3.40;99.90;;;;;;5000776;28;20048;-66
2021/12/18 08:20:45;;;;;;;36.95;15.65;;;3.40;99.90;;;;;;5028667;28;20032;-66
2021/12/18 08:23:11;;;;;;;43.10;15.93;;;3.50;99.90;;;;;;5015176;28;20437;-68
2021/12/18 08:25:37;;;;;;;36.10;16.67;;;3.50;99.90;;;;;;5002118;28;21386;-66
2021/12/18 08:28:04;;;;;;;41.35;15.27;;;3.40;99.90;;;;;;5007989;28;20160;-67
2021/12/18 08:30:32;;;;;;;41.10;15.25;;;3.40;99.90;;;;;;5008852;28;20026;-66
2021/12/18 08:32:58;;;;;;;47.15;16.85;;;3.50;99.90;;;;;;5009428;28;20018;-67
2021/12/18 08:35:28;;;;;;;45.58;16.02;;;3.50;99.90;;;;;;5010261;28;20026;-66
2021/12/18 08:37:55;;;;;;;53.95;19.33;;;3.50;99.90;;;;;;5008141;28;20375;-68
2021/12/18 08:40:22;;;;;;;47.00;17.25;;;3.50;99.90;;;;;;5007718;28;20117;-65
2021/12/18 08:42:47;;;;;;;43.90;17.63;;;3.50;99.90;;;;;;5009803;28;20524;-66
2021/12/18 08:45:14;;;;;;;54.33;18.75;;;3.40;99.90;;;;;;5008515;28;20029;-66
2021/12/18 08:47:40;;;;;;;44.97;17.45;;;3.40;99.90;;;;;;5008799;28;20030;-66
2021/12/18 08:50:09;;;;;;;54.40;17.75;;;3.40;99.90;;;;;;5007258;28;20553;-66
2021/12/18 08:52:35;;;;;;;48.85;16.80;;;3.40;99.90;;;;;;5009662;28;20034;-68
2021/12/18 08:55:00;;;;;;;45.65;16.50;;;3.40;99.90;;;;;;5009942;28;20530;-68
2021/12/18 08:57:27;;;;;;;42.28;16.92;;;3.40;99.90;;;;;;5007460;28;20026;-66
2021/12/18 08:59:53;;;;;;;47.53;18.63;;;3.40;99.90;;;;;;5005859;28;20117;-67
2021/12/18 09:02:18;;;;;;;45.40;15.32;;;3.40;99.90;;;;;;5010636;28;20106;-66
2021/12/18 09:04:44;;;;;;;44.92;17.73;;;3.50;99.90;;;;;;5007045;28;20057;-66
2021/12/18 09:07:10;;;;;;;42.13;17.50;;;3.40;99.90;;;;;;5008658;28;20026;-66
2021/12/18 09:09:36;;;;;;;43.38;16.80;;;3.50;99.90;;;;;;5004909;28;20022;-67
2021/12/18 09:12:01;;;;;;;36.00;15.02;;;3.50;99.90;;;;;;4999253;28;20132;-68
2021/12/18 09:14:27;;;;;;;39.05;16.77;;;3.50;99.90;;;;;;5006775;28;20129;-69
2021/12/18 09:16:53;;;;;;;42.00;17.13;;;3.60;99.90;;;;;;5006391;28;20022;-66
2021/12/18 09:19:20;;;;;;;37.03;15.68;;;3.60;99.90;;;;;;5005976;28;20386;-66
2021/12/18 09:21:45;;;;;;;55.03;21.33;;;3.60;99.90;;;;;;5017814;28;20716;-66
2021/12/18 09:24:11;;;;;;;46.85;17.40;;;3.60;99.90;;;;;;5008316;28;20113;-67
2021/12/18 09:26:37;;;;;;;26.40;13.55;;;3.70;99.90;;;;;;5004411;28;20096;-67
2021/12/18 09:29:02;;;;;;;38.75;15.27;;;3.70;99.90;;;;;;5004046;28;20068;-67
2021/12/18 09:31:28;;;;;;;29.08;13.55;;;3.70;99.90;;;;;;5001577;28;20061;-67
2021/12/18 09:33:54;;;;;;;30.67;13.95;;;3.80;99.90;;;;;;5003693;28;20083;-67
2021/12/18 09:36:20;;;;;;;28.80;13.43;;;3.80;99.90;;;;;;5007828;28;20413;-66
2021/12/18 09:38:45;;;;;;;24.00;11.27;;;3.90;99.90;;;;;;5024897;28;20064;-66
2021/12/18 09:41:11;;;;;;;27.08;12.32;;;3.90;99.90;;;;;;5006533;28;20093;-66
2021/12/18 09:43:37;;;;;;;26.17;14.43;;;3.90;99.90;;;;;;5002138;28;20398;-66
2021/12/18 09:46:05;;;;;;;19.80;11.68;;;3.90;99.90;;;;;;5002116;28;20064;-67
2021/12/18 09:48:31;;;;;;;19.60;11.05;;;3.90;99.90;;;;;;5013382;28;20504;-67
2021/12/18 09:50:58;;;;;;;17.45;9.95;;;3.90;99.90;;;;;;5007474;28;20367;-67
2021/12/18 09:53:24;;;;;;;20.88;11.30;;;3.90;99.90;;;;;;5007305;28;20030;-66
2021/12/18 09:55:50;;;;;;;18.23;11.80;;;3.90;99.90;;;;;;5005721;28;20501;-67
2021/12/18 09:58:16;;;;;;;23.10;11.35;;;4.00;99.90;;;;;;5006867;28;20030;-66
2021/12/18 10:00:42;;;;;;;19.38;11.07;;;4.00;99.90;;;;;;5005827;28;20512;-66
2021/12/18 10:03:07;;;;;;;16.45;10.35;;;4.10;99.90;;;;;;5011462;28;20029;-67
2021/12/18 10:05:35;;;;;;;13.23;8.88;;;4.10;99.90;;;;;;5006751;28;20045;-66
2021/12/18 10:08:07;;;;;;;16.40;9.45;;;4.10;99.90;;;;;;5015351;28;20034;-66
2021/12/18 10:10:33;;;;;;;15.27;11.07;;;4.20;99.90;;;;;;5003437;28;20397;-66
2021/12/18 10:13:08;;;;;;;14.48;9.73;;;4.20;99.90;;;;;;5008545;28;20040;-65
2021/12/18 10:15:36;;;;;;;14.48;10.75;;;4.30;99.90;;;;;;5006184;28;20029;-65
2021/12/18 10:18:09;;;;;;;13.52;11.75;;;4.30;99.90;;;;;;5006220;28;20018;-65
2021/12/18 10:20:35;;;;;;;19.70;10.02;;;4.20;99.90;;;;;;5022777;28;20074;-65
2021/12/18 10:23:05;;;;;;;13.65;10.20;;;4.20;99.90;;;;;;5005052;28;21061;-65
2021/12/18 10:25:40;;;;;;;13.65;9.13;;;4.30;99.90;;;;;;5006225;28;20062;-65
2021/12/18 10:28:16;;;;;;;8.43;7.03;;;4.30;99.90;;;;;;5021915;28;20034;-65
2021/12/18 10:30:47;;;;;;;9.93;7.70;;;4.40;99.90;;;;;;5004194;28;20521;-65
2021/12/18 10:33:14;;;;;;;11.98;8.93;;;4.40;99.90;;;;;;5004957;28;20033;-65
2021/12/18 10:35:50;;;;;;;10.10;8.40;;;4.40;99.90;;;;;;5008220;28;20108;-65
2021/12/18 10:38:38;;;;;;;9.95;8.93;;;4.40;99.90;;;;;;5003892;28;20031;-65
2021/12/18 10:41:27;;;;;;;6.47;5.70;;;4.30;99.90;;;;;;5006384;28;20543;-65
2021/12/18 10:44:12;;;;;;;9.52;8.27;;;4.30;99.90;;;;;;5003879;28;20033;-65
2021/12/18 10:46:40;;;;;;;8.77;7.88;;;4.30;99.90;;;;;;5002346;28;20068;-65
2021/12/18 10:49:17;;;;;;;8.68;7.65;;;4.30;99.90;;;;;;5004550;28;20061;-65
2021/12/18 10:51:44;;;;;;;10.10;9.10;;;4.30;99.90;;;;;;5006609;28;20152;-65
2021/12/18 10:54:18;;;;;;;9.70;7.50;;;4.30;99.90;;;;;;5005233;28;20080;-65
2021/12/18 10:56:51;;;;;;;8.73;7.05;;;4.40;99.90;;;;;;5006447;28;20020;-65
2021/12/18 10:59:20;;;;;;;6.07;5.15;;;4.40;99.90;;;;;;5005913;28;20030;-65
2021/12/18 11:02:00;;;;;;;6.68;6.03;;;4.40;99.90;;;;;;5008033;28;20029;-65
2021/12/18 11:04:39;;;;;;;7.30;6.60;;;4.40;99.90;;;;;;5004372;28;20018;-65
2021/12/18 11:07:22;;;;;;;7.05;6.28;;;4.40;99.90;;;;;;5007704;28;20433;-65
2021/12/18 11:15:18;;;;;;;8.18;6.72;;;4.50;99.90;;;;;;5003845;28;20077;-65
2021/12/18 11:17:45;;;;;;;6.22;5.63;;;4.50;99.90;;;;;;5007313;28;20473;-65
2021/12/18 11:20:11;;;;;;;6.50;5.63;;;4.50;99.90;;;;;;5005249;28;20065;-65
2021/12/18 11:22:37;;;;;;;9.93;6.22;;;4.50;99.90;;;;;;5003331;28;20065;-65
2021/12/18 11:25:06;;;;;;;6.57;5.95;;;4.50;99.90;;;;;;5007992;28;20505;-65
2021/12/18 11:27:35;;;;;;;7.68;6.88;;;4.50;99.90;;;;;;5002945;28;20034;-65
2021/12/18 11:30:07;;;;;;;8.25;6.88;;;4.40;99.90;;;;;;5005197;28;20417;-65
2021/12/18 11:32:36;;;;;;;6.93;6.07;;;4.30;99.90;;;;;;5002924;28;20037;-65
2021/12/18 11:35:06;;;;;;;9.10;6.40;;;4.20;99.90;;;;;;5009512;28;20033;-65
2021/12/18 11:37:47;;;;;;;7.88;7.05;;;4.10;99.90;;;;;;5004454;28;20155;-65
2021/12/18 11:40:16;;;;;;;;;;;4.10;99.90;;;;;;5005121;28;20548;-65
2021/12/18 11:42:42;;;;;;;6.93;4.72;;;4.10;99.90;;;;;;5019993;28;20281;-65
2021/12/18 11:45:09;;;;;;;6.15;5.28;;;4.10;99.90;;;;;;5008613;28;20037;-65
2021/12/18 11:47:40;;;;;;;6.47;4.88;;;4.20;99.90;;;;;;5004982;28;20100;-65
2021/12/18 11:50:23;;;;;;;5.93;5.35;;;4.20;99.90;;;;;;5006764;28;20030;-64
2021/12/18 11:53:09;;;;;;;5.97;5.40;;;4.30;99.90;;;;;;5019977;28;20028;-64
2021/12/18 11:55:50;;;;;;;6.68;5.75;;;4.20;99.90;;;;;;5009246;28;20030;-64
2021/12/18 11:58:18;;;;;;;6.00;5.45;;;4.20;99.90;;;;;;5009521;28;20026;-64
2021/12/18 12:00:52;;;;;;;6.97;6.28;;;4.20;99.90;;;;;;5007385;28;20030;-64
2021/12/18 12:03:37;;;;;;;5.70;5.20;;;4.20;99.90;;;;;;5009638;28;20101;-64
2021/12/18 12:06:25;;;;;;;8.02;6.72;;;4.10;99.90;;;;;;5010309;28;20485;-64
2021/12/18 12:09:14;;;;;;;7.70;6.97;;;4.10;99.90;;;;;;5001297;28;20118;-64
2021/12/18 12:11:58;;;;;;;7.00;6.30;;;4.00;99.90;;;;;;5005488;28;20034;-64
2021/12/18 12:14:26;;;;;;;16.92;14.05;;;4.00;99.90;;;;;;5011879;28;20026;-64
2021/12/18 12:16:51;;;;;;;10.95;9.85;;;3.90;99.90;;;;;;5008448;28;20453;-64
2021/12/18 12:19:24;;;;;;;9.38;8.38;;;3.90;99.90;;;;;;5009099;28;20041;-64
2021/12/18 12:21:53;;;;;;;8.45;7.65;;;3.80;99.90;;;;;;5007730;28;20026;-64
2021/12/18 12:24:25;;;;;;;10.48;9.38;;;3.90;99.90;;;;;;5008809;28;20040;-65
2021/12/18 12:26:53;;;;;;;9.85;7.53;;;3.90;99.90;;;;;;5008311;28;20014;-64
2021/12/18 12:29:19;;;;;;;16.27;11.38;;;3.90;99.90;;;;;;5007472;28;20037;-64
2021/12/18 12:31:56;;;;;;;10.00;7.40;;;4.00;99.90;;;;;;5009130;28;20026;-64
2021/12/18 12:34:37;;;;;;;8.35;7.15;;;4.00;99.90;;;;;;5007894;28;20093;-64
2021/12/18 12:37:36;;;;;;;9.07;8.07;;;4.00;99.90;;;;;;5008009;28;20390;-64
2021/12/18 12:40:07;;;;;;;7.18;6.45;;;4.10;99.90;;;;;;5006744;28;20081;-64
2021/12/18 12:42:34;;;;;;;10.40;6.60;;;4.10;99.90;;;;;;5005827;28;20100;-64
2021/12/18 12:47:28;;;;;;;8.00;7.20;;;4.20;99.90;;;;;;5009180;28;20034;-64
2021/12/18 12:50:11;;;;;;;7.95;7.15;;;4.20;99.90;;;;;;5006794;28;20026;-64
2021/12/18 12:52:51;;;;;;;7.82;7.03;;;4.30;99.90;;;;;;5010828;28;20500;-64
2021/12/18 12:55:21;;;;;;;7.85;7.03;;;4.30;99.90;;;;;;5006945;28;20562;-64
2021/12/18 12:57:56;;;;;;;9.90;8.35;;;4.30;99.90;;;;;;5008694;28;20018;-64
2021/12/18 13:00:23;;;;;;;8.18;7.38;;;4.30;99.90;;;;;;5008808;28;20375;-64
2021/12/18 13:03:01;;;;;;;10.13;9.13;;;4.30;99.90;;;;;;5009359;28;20023;-64
2021/12/18 13:05:29;;;;;;;12.32;11.05;;;4.20;99.90;;;;;;4996415;28;20034;-64
2021/12/18 13:08:01;;;;;;;13.85;12.45;;;4.20;99.90;;;;;;5000737;28;20092;-64
2021/12/18 13:10:32;;;;;;;15.30;11.70;;;4.10;99.90;;;;;;5009382;28;20030;-64
2021/12/18 13:13:07;;;;;;;13.23;11.93;;;4.00;99.90;;;;;;5007522;28;20120;-64
2021/12/18 13:16:00;;;;;;;10.75;9.38;;;4.00;99.90;;;;;;5002305;28;20037;-64
2021/12/18 13:18:45;;;;;;;10.40;8.68;;;4.00;99.90;;;;;;5008076;28;20093;-64
2021/12/18 13:21:18;;;;;;;10.52;8.70;;;4.00;99.90;;;;;;5008148;28;20038;-64
2021/12/18 13:23:52;;;;;;;9.77;8.77;;;3.90;99.90;;;;;;5011049;28;20036;-64
2021/12/18 13:26:32;;;;;;;10.40;8.68;;;3.90;99.90;;;;;;5003934;28;20149;-64
2021/12/18 13:29:11;;;;;;;11.60;9.27;;;3.90;99.90;;;;;;5000160;28;20148;-64
2021/12/18 13:31:49;;;;;;;11.48;8.45;;;3.90;99.90;;;;;;5008232;28;20030;-64
2021/12/18 13:34:20;;;;;;;11.40;9.20;;;3.80;99.90;;;;;;5021261;28;20121;-64
2021/12/18 13:36:50;;;;;;;11.93;9.15;;;3.90;99.90;;;;;;5005204;28;20037;-64
2021/12/18 13:39:19;;;;;;;10.85;9.52;;;3.90;99.90;;;;;;5004369;28;20092;-64